Airfield :
LOGIN :

Register | Disclaimer

   EN    FR    IT 

 










Legend :    VFR   Marginal VFR   IFR   Intensive IFR   Very Intensive IFR
Visi :
Ceiling :
>= 8 km
>= 3000ft
5 to 8 km
1000 to 3000 ft
1500m to 5 km
500 to 1000 ft
800 to 1500m
200 to 500 ft
< 800m
< 200 ft
Symbols :   Thunderstorms  Fog  Heavy snow  Heavy precipitations  Wind > 20 kt
SIGMETs :     Misc.  Thunderstorms  Icing  Turbulence  Mountain Waves  Volcanic Ashes







- Airport Elevation : 140 ft
- IATA code : NYO


ESKN - Skavsta

CURRENT METAR :
  • 212320Z 10005KT 9999 BKN004 M02/M02 Q1015 R08/710135

EXPIRED METARs :
  • 212250Z 09006KT 9999 BKN004 M02/M02 Q1015 R08/710135
  • 212220Z 08007KT 4500 -SN BKN005 M02/M02 Q1015 R08/490235
  • 212150Z 09007KT 6000 -SN SCT005 BKN009 M02/M03 Q1015 R08/490235
  • 212120Z 09007KT 3600 -SN BKN013 OVC020 M03/M03 Q1015 R26/710133
  • 212050Z 10007KT 4100 SN OVC021 M03/M03 Q1015 R26/710133

TAF TAF ESKN
Valid from the 22 at 00:00 until the 23 at 00:00 UTC


212330Z 2200/2224 12006KT 4000 BR BKN004
TEMPO 2200/2201 7000 SCT004 BKN010
BECMG 2201/2203 9999 NSW SCT006 BKN015
PROB40 2203/2214 4000 -SN BKN007
PROB40 2218/2224 2000 BR BKN003
No reported NOTAMs for that airfield.



MET'MAP, your aeronautical weather chart ! - Copyright ORBIFLY December 2007 - Disclaimer

ORBIFLY MET'MAP TEAM :

Programming & Development : Alexandra Zaïnal
Concept & Development : Baudouin d'Aumeries
Co-Development & Prog : Marc-Olivier Méhu
Technical & hardware support : Manuel Goepfert

Contact : metmap@orbifly.com




SOURCES & CREDITS :

   NOAA